Tiempo atmosférico en la estación meteorológica de A Coruña, A Coruña (58 m.)



Fecha
DESCASC
Temp. máxima en grados centígrados (hora)
DESCASC
Temp. mínima en grados centígrados (hora)
DESCASC
Temp. media en grados centígrados
DESCASC
Racha de viento máxima en m/sg (hora)
DESCASC
Velocidad máxima media en intervalos de 10 minutos(hora)
DESCASC
Precipitaciones diarias en mm
DESCASC
Precipitaciones de 00:00 a 06:00 en mm
DESCASC
Precipitaciones de 06:00 a 12:00 en mm
DESCASC
Precipitaciones de 12:00 a 18:00 en mm
DESCASC
Precipitaciones de 18:00 a 24:00 en mm
DESCASC
23-05-2018 21.9 (13:10) 13.1 (07:00) 17.5 6.94 (15:00) 4.17 (14:50) 0 0 0 0 0
22-05-2018 19.6 (15:20) 12.8 (06:20) 16.2 7.22 (17:50) 4.17 (16:10) 0 0 0 0 0
21-05-2018 17.8 (17:10) 11.9 (07:30) 14.8 8.61 (16:40) 5.56 (18:00) 0 0 0 0 0
20-05-2018 19.7 (19:30) 11.5 (00:00) 15.6 9.44 (15:20) 5.83 (19:30) 0 0 0 0 0
19-05-2018 23.9 (14:30) 13.7 (00:00) 18.8 8.33 (17:20) 5.56 (20:00) 0 0 0 0 0
18-05-2018 19.2 (12:40) 13.4 (00:00) 16.3 15.28 (16:10) 10.56 (16:20) 0 0 0 0 0
17-05-2018 16.8 (11:40) 12.2 (00:00) 14.5 15 (17:10) 11.11 (17:10) 0 0 0 0 0
16-05-2018 17.7 (15:00) 12.3 (00:00) 15 12.78 (16:00) 8.33 (17:20) 0 0 0 0 0
15-05-2018 14.9 (15:30) 12.3 (00:00) 13.6 12.22 (16:20) 9.17 (16:20) 0 0 0 0 0
14-05-2018 15.9 (15:30) 11.6 (00:00) 13.8 10 (02:00) 5.83 (03:00) 5.4 4.2 1.2 0 0
13-05-2018 14.1 (13:30) 9.6 (00:00) 11.9 11.11 (20:20) 6.11 (14:00) 6.6 4 1.8 0 0.8
12-05-2018 14.3 (15:30) 9.5 (00:00) 11.9 13.61 (16:30) 9.17 (16:30) 3.2 2.2 0.6 0.2 0.2
11-05-2018 16.3 (16:50) 11.4 (06:00) 13.8 12.22 (16:50) 6.39 (16:40) 0.6 0 0.6 0 0
10-05-2018 16.4 (13:50) 11 (00:00) 13.7 12.22 (17:00) 8.06 (17:20) 0 0 0 0 0
09-05-2018 15.9 (15:10) 12.3 (00:00) 14.1 11.67 (23:50) 6.94 (03:20) 0.6 0 0 0 0.6
08-05-2018 17 (15:30) 11.9 (00:00) 14.4 7.22 (00:20) 4.44 (01:20) 0 0 0 0 0
07-05-2018 17.9 (13:20) 12.9 (00:00) 15.4 8.61 (16:10) 5 (16:10) 0 0 0 0 0
06-05-2018 21.8 (17:40) 11.4 (00:00) 16.6 6.94 (00:50) 3.89 (00:40) 0 0 0 0 0
05-05-2018 19.2 (17:50) 10.4 (00:00) 14.8 12.22 (14:40) 8.33 (15:10) 0 0 0 0 0
04-05-2018 16.3 (13:50) 10.4 (00:00) 13.3 13.33 (18:30) 8.89 (22:20) 0 0 0 0 0
03-05-2018 14 (12:30) 10.2 (00:00) 12.1 12.5 (16:20) 8.33 (19:30) 0 0 0 0 0
02-05-2018 16.4 (15:10) 10.8 (00:00) 13.6 12.22 (04:10) 7.5 (20:40) 7.4 1 0.2 0.6 5.6
01-05-2018 15.9 (17:50) 7.7 (07:30) 11.8 11.67 (17:10) 7.22 (15:30) 0.6 0 0 0 0.6
30-04-2018 13.9 (16:00) 7.9 (00:00) 10.9 8.06 (20:10) 5.56 (20:40) 1.2 1.2 0 0 0
29-04-2018 13 (13:10) 8.8 (00:00) 10.9 11.94 (15:00) 7.22 (21:10) 5 0.4 0.2 3.6 0.8
28-04-2018 14.8 (12:10) 9 (00:00) 11.9 8.61 (21:20) 5.56 (15:30) 0.4 0 0 0 0.4

Gráficas

Temp. máximas Temp. mínimas Temp. medias Precipitaciones Rachas de viento máximas Velocidades máximas media en intervalos de 10 minutos

Datos horarios

Fecha y hora oficial Temperatura (ºC) Velocidad del viento (km/h) Dirección del viento Racha (km/h) Dirección de racha Precipitación (mm) Presión (hPa) Tendencia (hPa) Humedad (%)
2018-05-27 23:00:00 13.9 3 Oeste 13 Oeste 0 1010.3 0.6 92
2018-05-27 22:00:00 14.2 9 Oeste 14 Oeste 0 1010 0.6 91
2018-05-27 21:00:00 14.8 8 Oeste 17 Oeste 0 1009.7 0.2 85
2018-05-27 20:00:00 15.4 10 Oeste 23 Oeste 0 1009.7 0.2 82
2018-05-27 19:00:00 16.1 16 Oeste 25 Oeste 0 1009.4 -0.3 81
2018-05-27 18:00:00 16.8 17 Oeste 24 Oeste 0 1009.5 -0.3 79
2018-05-27 17:00:00 17.1 16 Oeste 29 Oeste 0 1009.5 -0.4 78
2018-05-27 16:00:00 16.6 18 Oeste 30 Oeste 0 1009.7 -0.2 80
2018-05-27 15:00:00 16.4 13 Oeste 27 Oeste 0 1009.8 -0.1 79
2018-05-27 14:00:00 15.6 14 Oeste 24 Oeste 0 1009.9 0.6 84
2018-05-27 13:00:00 15.5 14 Oeste 24 Oeste 0 1009.9 1 86
2018-05-27 12:00:00 16.3 17 Oeste 27 Oeste 0 1009.9 1.4 81
2018-05-27 11:00:00 16.3 13 Oeste 21 Oeste 0 1009.3 1.2 84
2018-05-27 10:00:00 14.8 10 Oeste 19 Oeste 0 1008.9 1.3 86
2018-05-27 09:00:00 14.3 10 Sudoeste 17 Sudoeste 0 1008.5 1.2 89
2018-05-27 08:00:00 13.8 12 Sudoeste 18 Sudoeste 0 1008.1 0.5 90
2018-05-27 07:00:00 13.7 9 Oeste 19 Oeste 0 1007.6 -0.1 90
2018-05-27 06:00:00 13.7 8 Sudoeste 15 Oeste 0 1007.3 -0.8 92
2018-05-27 05:00:00 13.9 8 Oeste 13 Oeste 0 1007.6 -0.7 95
2018-05-27 04:00:00 13.9 8 Oeste 13 Oeste 0 1007.7 -0.7 95
2018-05-27 03:00:00 14 8 Oeste 14 Noroeste 0 1008.1 -0.4 96
2018-05-27 02:00:00 14.2 7 Noroeste 12 Oeste 0 1008.3 -0.1 95
2018-05-27 01:00:00 14.3 8 Oeste 15 Oeste 0 1008.4 0.6 95
2018-05-27 00:00:00 14.4 6 Oeste 12 Oeste 0 1008.5 0.9 95
2018-05-26 23:00:00 14.2 5 Noroeste 9 Noroeste 0 1008.4 1.2 94
2018-05-26 22:00:00 14.2 4 Norte 13 Noroeste 0 1007.8 0.7 94
2018-05-26 21:00:00 14.6 8 Noroeste 15 Noroeste 0 1007.6 0.5 93
2018-05-26 20:00:00 14.8 8 Oeste 14 Noroeste 0 1007.2 -0.1 92
2018-05-26 19:00:00 14.9 6 Noroeste 13 Noroeste 0 1007.1 -0.5 90
2018-05-26 18:00:00 15 7 Noroeste 16 Noroeste 0 1007.1 -0.5 93
2018-05-26 17:00:00 14.5 9 Noroeste 17 Norte 0 1007.3 -0.3 96
2018-05-26 16:00:00 14.2 9 Norte 17 Norte 0 1007.6 0.2 98
2018-05-26 15:00:00 14 11 Noroeste 20 Noroeste 0 1007.6 0.2 98
2018-05-26 14:00:00 13.8 10 Norte 18 Norte 0 1007.6 0.2 98
2018-05-26 13:00:00 13.5 12 Norte 21 Norte 0 1007.4 0.2 98
2018-05-26 12:00:00 13.4 15 Norte 23 Norte 0 1007.4 0.4 99
2018-05-26 11:00:00 13.3 18 Norte 28 Norte 0 1007.4 0.5 99
2018-05-26 10:00:00 13.6 13 Norte 21 Norte 0.2 1007.2 0.6 99
2018-05-26 09:00:00 13.5 10 Norte 20 Norte 0.6 1007 0.4 99
2018-05-26 08:00:00 13.5 10 Norte 22 Norte 0 1006.9 0 99
2018-05-26 07:00:00 13.4 16 Norte 20 Norte 0.2 1006.6 -0.5 99
2018-05-26 06:00:00 13.4 10 Norte 23 Norte 0.4 1006.6 -0.8 98
2018-05-26 05:00:00 13.5 14 Norte 27 Norte 0 1006.9 -1.1 96
2018-05-26 04:00:00 13.6 11 Norte 22 Nordeste 0 1007.1 -1.2 94
2018-05-26 03:00:00 13.6 12 Norte 27 Nordeste 0.4 1007.4 -1.1 94
2018-05-26 02:00:00 13.9 13 Nordeste 25 Nordeste 0 1008 -0.5 91
2018-05-26 01:00:00 13.9 14 Nordeste 26 Nordeste 0 1008.3 0.4 92
2018-05-26 00:00:00 14.2 14 Nordeste 29 Norte 0 1008.5 0.8 90
2018-05-25 23:00:00 14.1 20 Nordeste 33 Nordeste 0 1008.5 1.1 89
2018-05-25 22:00:00 14.1 14 Norte 28 Norte 0 1007.9 0.4 93
2018-05-25 21:00:00 14.2 16 Norte 33 Norte 0 1007.7 0.1 93
2018-05-25 20:00:00 14.2 13 Norte 27 Norte 0.2 1007.4 -0.4 93
2018-05-25 19:00:00 14.3 13 Norte 31 Nordeste 0 1007.5 -0.3 91
2018-05-25 18:00:00 14.3 15 Norte 31 Norte 0 1007.6 -0.5 91
2018-05-25 17:00:00 14.5 13 Norte 26 Norte 0 1007.8 -0.5 91
2018-05-25 16:00:00 14.6 12 Norte 19 Nordeste 0 1007.8 -0.8 91
2018-05-25 15:00:00 14.5 11 Nordeste 21 Nordeste 0.2 1008.1 -0.3 90
2018-05-25 14:00:00 14.1 11 Norte 22 Norte 0.8 1008.3 0.2 92
2018-05-25 13:00:00 14.4 12 Nordeste 27 Nordeste 0.2 1008.6 0.3 90
2018-05-25 12:00:00 14.6 14 Nordeste 30 Norte 0 1008.4 0.7 87
2018-05-25 11:00:00 14.2 15 Norte 32 Nordeste 0 1008.1 0.8 88
2018-05-25 10:00:00 14.1 19 Nordeste 37 Nordeste 0 1008.3 1.3 90
2018-05-25 09:00:00 14.2 19 Norte 36 Norte 0 1007.7 1.3 92
2018-05-25 08:00:00 14.4 16 Nordeste 36 Norte 0 1007.3 0.6 93
2018-05-25 07:00:00 14.5 23 Norte 37 Norte 0 1007 -0.2 93
2018-05-25 06:00:00 14.7 24 Norte 37 Norte 0 1006.4 -1.6 93
2018-05-25 05:00:00 14.6 17 Nordeste 37 Norte 0 1006.7 -1.3 94
2018-05-25 04:00:00 14.8 13 Norte 26 Nordeste 0 1007.2 -0.6 92
2018-05-25 03:00:00 14.9 12 Nordeste 32 Nordeste 0 1008 0.1 92
2018-05-25 02:00:00 14.9 18 Nordeste 29 Nordeste 0 1008 0.5 93
2018-05-25 01:00:00 15 14 Norte 25 Norte 0 1007.8 0.7 91
2018-05-25 00:00:00 15.2 12 Norte 29 Nordeste 0 1007.9 0.9 88
2018-05-24 23:00:00 15.8 14 Nordeste 27 Nordeste 0 1007.5 0.1 84
2018-05-24 22:00:00 18 11 Nordeste 22 Este 0 1007.1 0.4 75
2018-05-24 21:00:00 18.1 7 Norte 13 Norte 0 1007 0.7 77
2018-05-24 20:00:00 17.6 7 Oeste 20 Nordeste 0 1007.4 1.4 77
2018-05-24 19:00:00 16.3 12 Norte 26 Norte 0 1006.7 0.4 84
2018-05-24 18:00:00 16.8 20 Norte 41 Norte 0 1006.3 -0.3 83
2018-05-24 17:00:00 17.5 28 Norte 47 Norte 0 1006 -0.8 81
2018-05-24 16:00:00 17.8 21 Norte 35 Norte 0 1006.3 -1.3 78
2018-05-24 15:00:00 18.9 9 Noroeste 27 Noroeste 0 1006.6 -0.6 74
2018-05-24 14:00:00 20.3 15 Norte 23 Norte 0 1006.8 -0.5 68
2018-05-24 13:00:00 21.5 9 Norte 13 Norte 0 1007.6 0 69
2018-05-24 12:00:00 19.9 6 Noroeste 13 Norte 0 1007.2 -0.5 72
2018-05-24 11:00:00 19.2 5 Norte 11 Nordeste 0 1007.3 -0.3 72
2018-05-24 10:00:00 18.3 6 Nordeste 9 Nordeste 0 1007.6 0.3 78
2018-05-24 09:00:00 16.2 6 Nordeste 9 Nordeste 0 1007.7 0.4 88
2018-05-24 08:00:00 15.1 3 Este 7 Norte 0 1007.6 0 92
2018-05-24 07:00:00 14.5 2 Sudoeste 6 Oeste 0 1007.3 -0.5 93
2018-05-24 06:00:00 14.6 4 Norte 5 Norte 0 1007.3 -0.7 92
2018-05-24 05:00:00 15.2 3 Norte 7 Sudeste 0 1007.6 -0.7 89
2018-05-24 04:00:00 15.7 4 Sudeste 6 Sudeste 0 1007.8 -0.6 87
2018-05-24 03:00:00 16 3 Este 6 Sudeste 0 1008 -0.6 84
2018-05-24 02:00:00 16.7 3 Norte 9 Sudoeste 0 1008.3 0.2 79
2018-05-24 01:00:00 16.3 6 Oeste 17 Oeste 0 1008.4 0.8 81
2018-05-24 00:00:00 16.9 7 Oeste 12 Sudoeste 0 1008.6 1.1 82
2018-05-23 23:00:00 18.1 3 Noroeste 7 Oeste 0 1008.1 0.8 78
2018-05-23 22:00:00 19 2 Norte 5 Sudoeste 0 1007.6 0.7 74
2018-05-23 21:00:00 19.6 5 Oeste 8 Sudoeste 0 1007.5 0.4 72
2018-05-23 20:00:00 20 7 Oeste 16 Sudoeste 0 1007.3 0 71
2018-05-23 19:00:00 20.3 8 Oeste 19 Oeste 0 1006.9 -0.4 67
2018-05-23 18:00:00 21.2 11 Oeste 15 Oeste 0 1007.1 -0.6 65
2018-05-23 17:00:00 19.8 8 Norte 18 Noroeste 0 1007.3 -0.7 68
2018-05-23 16:00:00 20.3 7 Norte 21 Norte 0 1007.3 -1 66
2018-05-23 15:00:00 19.1 15 Norte 25 Norte 0 1007.7 -1 72
2018-05-23 14:00:00 20.7 10 Norte 17 Norte 0 1008 -0.6 65
2018-05-23 13:00:00 21.7 5 Nordeste 10 Nordeste 0 1008.3 -0.3 57
2018-05-23 12:00:00 19.9 4 Nordeste 11 Norte 0 1008.7 0.2 62
2018-05-23 11:00:00 18.6 6 Nordeste 11 Nordeste 0 1008.6 0.4 63
2018-05-23 10:00:00 17.1 6 Nordeste 11 Este 0 1008.6 0.8 70
2018-05-23 09:00:00 15 3 Este 9 Sudeste 0 1008.5 0.7 78
2018-05-23 08:00:00 13.7 5 Nordeste 11 Este 0 1008.2 0.3 82
2018-05-23 07:00:00 13.1 3 Este 5 Este 0 1007.8 -0.3 79
2018-05-23 06:00:00 13.7 3 Este 7 Nordeste 0 1007.8 -0.8 75
2018-05-23 05:00:00 13.8 4 Nordeste 6 Nordeste 0 1007.9 -1.1 75
2018-05-23 04:00:00 14.3 3 Este 10 Nordeste 0 1008.1 -0.7 72
2018-05-23 03:00:00 14.8 6 Este 10 Este 0 1008.6 -0.1 69
2018-05-23 02:00:00 15.4 4 Este 12 Este 0 1009 0.9 66
2018-05-23 01:00:00 16 10 Nordeste 18 Nordeste 0 1008.8 1.4 65
2018-05-23 00:00:00 16.4 9 Nordeste 13 Nordeste 0 1008.7 1.9 67
2018-05-22 23:00:00 16.7 4 Nordeste 14 Norte 0 1008.1 1.4 70
2018-05-22 22:00:00 17 6 Noroeste 12 Norte 0 1007.4 0.8 72
2018-05-22 21:00:00 17.1 6 Oeste 18 Noroeste 0 1006.8 0.4 74
2018-05-22 20:00:00 17.6 9 Noroeste 18 Noroeste 0 1006.7 0.1 75
2018-05-22 19:00:00 17.6 7 Noroeste 16 Noroeste 0 1006.6 -0.4 74
2018-05-22 18:00:00 17.5 9 Noroeste 26 Noroeste 0 1006.4 -0.8 79
2018-05-22 17:00:00 18.1 11 Noroeste 25 Norte 0 1006.6 -0.8 75
2018-05-22 16:00:00 18.5 12 Norte 24 Norte 0 1007 -0.7 73
2018-05-22 15:00:00 18.8 9 Noroeste 19 Noroeste 0 1007.2 -0.7 70
2018-05-22 14:00:00 18.5 12 Oeste 20 Oeste 0 1007.4 -0.5 71
2018-05-22 13:00:00 18 10 Norte 15 Norte 0 1007.7 0.1 72
2018-05-22 12:00:00 16.9 6 Nordeste 14 Nordeste 0 1007.9 0.6 74
2018-05-22 11:00:00 15.8 7 Norte 12 Norte 0 1007.9 1.1 79
2018-05-22 10:00:00 14.6 6 Nordeste 11 Nordeste 0 1007.6 1.3 85
2018-05-22 09:00:00 13.9 8 Nordeste 11 Este 0 1007.3 1.2 90
2018-05-22 08:00:00 13.6 4 Nordeste 7 Este 0 1006.8 0.9 91
2018-05-22 07:00:00 13 2 Oeste 8 Oeste 0 1006.3 0.4 93
2018-05-22 06:00:00 12.9 4 Oeste 8 Oeste 0 1006.1 0.1 93
2018-05-22 05:00:00 13.4 6 Noroeste 9 Noroeste 0 1005.9 -0.2 92
2018-05-22 04:00:00 14 3 Norte 9 Sudeste 0 1005.9 -0.3 86
2018-05-22 03:00:00 14.4 6 Sudeste 11 Sudeste 0 1006 -0.4 85
2018-05-22 02:00:00 14.6 3 Sudeste 8 Este 0 1006.1 -0.2 84
2018-05-22 01:00:00 14.9 4 Sudeste 7 Oeste 0 1006.2 0.5 84
2018-05-22 00:00:00 14.9 3 Oeste 12 Oeste 0 1006.4 0.9 85
2018-05-21 23:00:00 14.9 7 Oeste 14 Oeste 0 1006.3 0.9 86
2018-05-21 22:00:00 15.1 8 Oeste 14 Noroeste 0 1005.7 0.8 84
2018-05-21 21:00:00 15.4 8 Oeste 19 Noroeste 0 1005.5 0.8 81
2018-05-21 20:00:00 15.9 11 Oeste 18 Noroeste 0 1005.4 0.7 78
2018-05-21 19:00:00 16.1 10 Noroeste 25 Oeste 0 1004.9 0.2 77
2018-05-21 18:00:00 16.7 20 Oeste 30 Noroeste 0 1004.7 0.1 75
2018-05-21 17:00:00 17.6 14 Oeste 31 Oeste 0 1004.7 0.2 72
2018-05-21 16:00:00 17.4 14 Noroeste 28 Noroeste 0 1004.7 0 72
2018-05-21 15:00:00 16.1 17 Noroeste 28 Noroeste 0 1004.6 0 76
2018-05-21 14:00:00 17.1 11 Noroeste 20 Noroeste 0 1004.5 -0.1 73
2018-05-21 13:00:00 16.4 8 Norte 17 Nordeste 0 1004.7 0.4 76
2018-05-21 12:00:00 15.9 9 Norte 17 Norte 0 1004.6 0.8 79
2018-05-21 11:00:00 15.8 10 Norte 17 Noroeste 0 1004.6 1.1 77
2018-05-21 10:00:00 15.5 8 Norte 12 Norte 0 1004.3 1.3 74
2018-05-21 09:00:00 13.1 4 Nordeste 6 Nordeste 0 1003.8 0.9 79
2018-05-21 08:00:00 11.9 2 Sudeste 14 Sudeste 0 1003.5 0.5 80
2018-05-21 07:00:00 12.2 7 Sudeste 10 Sudeste 0 1003 -0.4 77
2018-05-21 06:00:00 12.9 4 Sudeste 8 Sudeste 0 1002.9 -1 74
2018-05-21 05:00:00 13.2 3 Sudeste 6 Sudeste 0 1003 -1.2 73
2018-05-21 04:00:00 13.5 2 Este 4 Norte 0 1003.4 -1.1 73
2018-05-21 03:00:00 14.2 0 Calma 8 Nordeste 0 1003.9 -0.8 71
2018-05-21 02:00:00 15 5 Nordeste 12 Este 0 1004.2 -0.3 67
2018-05-21 01:00:00 15.5 6 Nordeste 18 Nordeste 0 1004.5 0.3 65
2018-05-21 00:00:00 16.2 10 Este 22 Nordeste 0 1004.7 0.7 62
2018-05-20 23:00:00 17.2 19 Nordeste 28 Nordeste 0 1004.5 0.6 57
2018-05-20 22:00:00 18.3 19 Nordeste 29 Nordeste 0 1004.2 0.1 52
2018-05-20 21:00:00 19.4 18 Nordeste 32 Nordeste 0 1004 -0.4 50
2018-05-20 20:00:00 19.1 15 Nordeste 31 Nordeste 0 1003.9 -0.8 56
2018-05-20 19:00:00 17.9 6 Noroeste 26 Norte 0 1004.1 -1.2 69
2018-05-20 18:00:00 17.1 18 Norte 33 Norte 0 1004.4 -1.6 72
2018-05-20 17:00:00 18.9 16 Norte 28 Noroeste 0 1004.7 -2.2 63
2018-05-20 16:00:00 18 15 Norte 34 Norte 0 1005.3 -2.2 67
2018-05-20 15:00:00 18.1 18 Norte 32 Norte 0 1006 -1.9 68
2018-05-20 14:00:00 18.4 9 Norte 24 Norte 0 1006.9 -1.5 66
2018-05-20 13:00:00 19 7 Norte 14 Norte 0 1007.5 -1.2 64
2018-05-20 12:00:00 18.4 10 Norte 16 Norte 0 1007.9 -1.1 62
2018-05-20 11:00:00 16.8 6 Nordeste 10 Nordeste 0 1008.4 -0.4 55
2018-05-20 10:00:00 15.8 5 Este 9 Este 0 1008.7 0 52
2018-05-20 09:00:00 12.9 5 Nordeste 8 Nordeste 0 1009 0 66
2018-05-20 08:00:00 12.1 4 Sudeste 12 Este 0 1008.8 -0.1 71
2018-05-20 07:00:00 11.6 4 Este 12 Este 0 1008.7 -0.8 74
2018-05-20 06:00:00 11.9 5 Este 9 Este 0 1009 -1 73
2018-05-20 05:00:00 12.4 6 Nordeste 10 Este 0 1008.9 -1.8 68
2018-05-20 04:00:00 13.1 5 Este 8 Este 0 1009.5 -1.3 63
2018-05-20 03:00:00 13.9 4 Nordeste 16 Este 0 1010 -0.7 60
2018-05-20 02:00:00 14.7 9 Este 18 Este 0 1010.7 0.5 55
2018-05-20 01:00:00 15.4 7 Este 20 Este 0 1010.8 1.2 55
2018-05-20 00:00:00 16.1 14 Este 26 Nordeste 0 1010.7 1.3 55
2018-05-19 23:00:00 17.4 13 Nordeste 26 Nordeste 0 1010.2 1 54
2018-05-19 22:00:00 19.2 15 Nordeste 27 Nordeste 0 1009.6 0.1 47
2018-05-19 21:00:00 20.3 17 Nordeste 30 Nordeste 0 1009.4 -0.1 47
2018-05-19 20:00:00 20.3 20 Nordeste 29 Nordeste 0 1009.2 -0.3 52
2018-05-19 19:00:00 17.6 13 Norte 28 Norte 0 1009.5 -0.3 71
2018-05-19 18:00:00 18.5 16 Norte 30 Norte 0 1009.5 -0.7 68
2018-05-19 17:00:00 19.9 14 Norte 24 Norte 0 1009.5 -1.1 64
2018-05-19 16:00:00 20.9 6 Noroeste 24 Norte 0 1009.8 -1.1 63
2018-05-19 15:00:00 23.5 7 Norte 14 Norte 0 1010.2 -0.5 54
2018-05-19 14:00:00 22.9 9 Norte 12 Norte 0 1010.6 -0.2 56
2018-05-19 13:00:00 21.9 8 Norte 11 Norte 0 1010.9 0 58
2018-05-19 12:00:00 20.9 6 Nordeste 11 Nordeste 0 1010.7 0.3 57
2018-05-19 11:00:00 19.6 6 Nordeste 13 Este 0 1010.8 0.8 64
2018-05-19 10:00:00 18.3 7 Este 15 Sudeste 0 1010.9 1.1 70
2018-05-19 09:00:00 16.3 9 Sudeste 22 Sudeste 0 1010.4 0.9 76
2018-05-19 08:00:00 14.8 8 Sudeste 13 Sudeste 0 1010 0.6 81
2018-05-19 07:00:00 14 6 Sudeste 7 Sudeste 0 1009.8 0.2 85
2018-05-19 06:00:00 13.9 2 Nordeste 4 Norte 0 1009.5 -0.5 85
2018-05-19 05:00:00 14.4 4 Sudeste 13 Sudeste 0 1009.4 -1 83
2018-05-19 04:00:00 14.3 2 Sudeste 8 Nordeste 0 1009.6 -0.9 86
2018-05-19 03:00:00 14.6 2 Nordeste 13 Este 0 1010 -0.5 85
2018-05-19 02:00:00 14.9 7 Este 17 Este 0 1010.4 0 84
2018-05-19 01:00:00 15 10 Nordeste 24 Nordeste 0 1010.5 1 83
2018-05-19 00:00:00 15.4 14 Nordeste 27 Nordeste 0 1010.5 1.5 80
2018-05-18 23:00:00 15.1 12 Nordeste 27 Nordeste 0 1010.4 1.4 83
2018-05-18 22:00:00 15.7 14 Nordeste 33 Nordeste 0 1009.5 0.5 82
2018-05-18 21:00:00 17.4 23 Nordeste 37 Nordeste 0 1009 -0.3 72
2018-05-18 20:00:00 15.8 14 Norte 36 Norte 0 1009 -0.5 83
2018-05-18 19:00:00 15.8 24 Norte 37 Norte 0 1009 -0.5 83
2018-05-18 18:00:00 15.6 20 Norte 46 Norte 0 1009.3 -0.7 84
2018-05-18 17:00:00 15.7 31 Norte 55 Norte 0 1009.5 -0.8 83
2018-05-18 16:00:00 15.8 27 Norte 45 Norte 0 1009.5 -1.3 82
2018-05-18 15:00:00 16.4 19 Norte 36 Nordeste 0 1010 -0.9 81
2018-05-18 14:00:00 17 14 Norte 33 Nordeste 0 1010.3 -1.1 79
2018-05-18 13:00:00 17.7 14 Norte 32 Nordeste 0 1010.8 -0.5 76
2018-05-18 12:00:00 18.6 21 Nordeste 32 Nordeste 0 1010.9 -0.2 66
2018-05-18 11:00:00 17.7 11 Nordeste 18 Nordeste 0 1011.4 0.3 70
2018-05-18 10:00:00 16.5 9 Este 27 Nordeste 0 1011.3 0.4 74
2018-05-18 09:00:00 14.9 13 Nordeste 22 Nordeste 0 1011.1 0.5 81
2018-05-18 08:00:00 13.8 9 Nordeste 22 Nordeste 0 1011.1 0.5 84
2018-05-18 07:00:00 13.6 15 Este 31 Nordeste 0 1010.9 0.1 84
2018-05-18 06:00:00 13.7 18 Nordeste 28 Nordeste 0 1010.6 -0.4 85
2018-05-18 05:00:00 13.6 16 Nordeste 28 Nordeste 0 1010.6 -0.4 87
2018-05-18 04:00:00 13.4 15 Nordeste 24 Nordeste 0 1010.8 -0.2 87
2018-05-18 03:00:00 13.4 11 Norte 26 Norte 0 1011 0.1 86
2018-05-18 02:00:00 13.4 14 Nordeste 30 Nordeste 0 1011 0.3 84
2018-05-18 01:00:00 13.5 22 Nordeste 30 Nordeste 0 1011 1.1 83
2018-05-18 00:00:00 13.9 12 Nordeste 27 Nordeste 0 1010.9 1.3 81
2018-05-17 23:00:00 13.6 20 Norte 30 Norte 0 1010.7 1.3 89
2018-05-17 22:00:00 13.7 18 Norte 26 Norte 0 1009.9 0.4 89
2018-05-17 21:00:00 13.8 13 Nordeste 41 Norte 0 1009.6 0.1 88
2018-05-17 20:00:00 13.9 26 Norte 38 Norte 0 1009.4 -0.2 87
2018-05-17 19:00:00 13.9 23 Norte 48 Norte 0 1009.5 -0.3 87
2018-05-17 18:00:00 14.4 39 Norte 54 Norte 0 1009.5 -0.5 85
2018-05-17 17:00:00 14.7 38 Norte 52 Norte 0 1009.6 -0.6 83
2018-05-17 16:00:00 14.8 34 Norte 52 Norte 0 1009.8 -0.9 81
2018-05-17 15:00:00 14.9 29 Norte 48 Norte 0 1010 -0.7 80
2018-05-17 14:00:00 15.1 28 Norte 48 Norte 0 1010.2 -0.3 79
2018-05-17 13:00:00 15.2 28 Norte 42 Norte 0 1010.7 0.2 80
2018-05-17 12:00:00 15.7 15 Norte 30 Norte 0 1010.7 0.2 77
2018-05-17 11:00:00 16.4 15 Nordeste 31 Este 0 1010.5 0.1 67
2018-05-17 10:00:00 14.8 19 Nordeste 31 Nordeste 0 1010.5 0.4 73
2018-05-17 09:00:00 13.3 16 Nordeste 26 Nordeste 0 1010.5 0.2 79
2018-05-17 08:00:00 12.6 14 Nordeste 23 Nordeste 0 1010.4 -0.1 83
2018-05-17 07:00:00 12.3 17 Nordeste 28 Nordeste 0 1010.1 -0.6 84
2018-05-17 06:00:00 12.3 16 Nordeste 27 Nordeste 0 1010.3 -0.9 84
2018-05-17 05:00:00 12.4 15 Nordeste 30 Nordeste 0 1010.5 -0.8 83
2018-05-17 04:00:00 12.4 14 Nordeste 27 Nordeste 0 1010.7 -1.1 83
2018-05-17 03:00:00 12.6 15 Nordeste 24 Nordeste 0 1011.2 -0.7 84
2018-05-17 02:00:00 12.9 15 Nordeste 28 Nordeste 0 1011.3 -0.3 80
2018-05-17 01:00:00 13 19 Nordeste 35 Nordeste 0 1011.8 0.6 78
2018-05-17 00:00:00 13.3 22 Nordeste 33 Nordeste 0 1011.9 0.9 77
2018-05-16 23:00:00 13.5 22 Nordeste 37 Nordeste 0 1011.6 0.7 77
2018-05-16 22:00:00 13.8 24 Nordeste 37 Nordeste 0 1011.2 0.2 74
2018-05-16 21:00:00 14.5 20 Nordeste 40 Norte 0 1011 -0.1 73
2018-05-16 20:00:00 14.1 21 Norte 45 Norte 0 1010.9 -0.9 82
2018-05-16 19:00:00 14.2 25 Norte 44 Norte 0 1011 -1.1 81
2018-05-16 18:00:00 14.5 29 Norte 46 Norte 0 1011.1 -1.4 80
2018-05-16 17:00:00 15.2 26 Norte 43 Norte 0 1011.8 -1.2 74
2018-05-16 16:00:00 15.8 21 Norte 46 Norte 0 1012.1 -1.6 72
2018-05-16 15:00:00 17.6 21 Nordeste 42 Nordeste 0 1012.5 -1.4 63
2018-05-16 14:00:00 17 28 Nordeste 38 Nordeste 0 1013 -1.1 67
2018-05-16 13:00:00 15.6 23 Nordeste 38 Nordeste 0 1013.7 -0.6 68
2018-05-16 12:00:00 15.5 23 Nordeste 34 Este 0 1013.9 -0.4 70
2018-05-16 11:00:00 15.4 17 Nordeste 31 Nordeste 0 1014.1 0.1 74
2018-05-16 10:00:00 14.3 16 Nordeste 24 Nordeste 0 1014.3 0.4 78
2018-05-16 09:00:00 14.2 13 Nordeste 28 Nordeste 0 1014.3 0.2 78
2018-05-16 08:00:00 13.2 17 Nordeste 27 Nordeste 0 1014 -0.4 80
2018-05-16 07:00:00 12.5 14 Nordeste 24 Nordeste 0 1013.9 -1.1 83
2018-05-16 06:00:00 12.4 12 Nordeste 21 Este 0 1014.1 -1.5 84
2018-05-16 05:00:00 12.7 14 Nordeste 28 Nordeste 0 1014.4 -1.5 82
2018-05-16 04:00:00 13.2 15 Este 42 Este 0 1015 -1.3 79
2018-05-16 03:00:00 13.4 17 Nordeste 32 Nordeste 0 1015.6 -0.9 78
2018-05-16 02:00:00 13.4 18 Nordeste 33 Nordeste 0 1015.9 -0.3 78
2018-05-16 01:00:00 13.4 17 Nordeste 30 Nordeste 0 1016.3 0.5 79
2018-05-16 00:00:00 13.6 22 Nordeste 37 Nordeste 0 1016.5 0.8 78
2018-05-15 23:00:00 13.7 16 Nordeste 25 Nordeste 0 1016.2 0.5 79
2018-05-15 22:00:00 13.5 13 Nordeste 28 Nordeste 0 1015.8 -0.2 86
2018-05-15 21:00:00 13.8 14 Nordeste 29 Norte 0 1015.7 -0.3 86
2018-05-15 20:00:00 13.8 17 Norte 34 Norte 0 1015.7 -0.6 87
2018-05-15 19:00:00 14 19 Norte 38 Norte 0 1016 -0.7 87
2018-05-15 18:00:00 14.3 25 Norte 41 Norte 0 1016 -1.2 86
2018-05-15 17:00:00 14.7 30 Norte 44 Norte 0 1016.3 -1.3 82
2018-05-15 16:00:00 14.3 28 Norte 39 Norte 0 1016.7 -1.1 87
2018-05-15 15:00:00 14.6 24 Norte 35 Norte 0 1017.2 -0.6 87
2018-05-15 14:00:00 13.9 21 Norte 31 Norte 0 1017.6 -0.2 89
2018-05-15 13:00:00 13.3 18 Norte 26 Norte 0 1017.8 0.1 91
2018-05-15 12:00:00 13.4 9 Norte 16 Noroeste 0 1017.8 0 93
2018-05-15 11:00:00 13.3 6 Norte 11 Norte 0 1017.8 0.3 92
2018-05-15 10:00:00 12.6 5 Norte 9 Nordeste 0 1017.7 0.4 94
2018-05-15 09:00:00 12.5 5 Norte 9 Nordeste 0 1017.8 0.5 91
2018-05-15 08:00:00 12.4 6 Norte 11 Norte 0 1017.5 0.2 88
2018-05-15 07:00:00 12.3 6 Nordeste 12 Nordeste 0 1017.3 -0.2 85
2018-05-15 06:00:00 12.3 8 Nordeste 15 Nordeste 0 1017.3 -0.5 84
2018-05-15 05:00:00 12.3 10 Nordeste 15 Nordeste 0 1017.3 -0.9 85
2018-05-15 04:00:00 12.6 9 Nordeste 14 Este 0 1017.5 -1 83
2018-05-15 03:00:00 12.8 8 Nordeste 17 Nordeste 0 1017.8 -0.9 85
2018-05-15 02:00:00 12.8 10 Nordeste 17 Nordeste 0 1018.2 -0.3 84
2018-05-15 01:00:00 12.8 10 Norte 17 Norte 0 1018.5 0.3 84
2018-05-15 00:00:00 13 9 Nordeste 19 Norte 0 1018.7 0.9 85
2018-05-14 23:00:00 13 10 Norte 28 Norte 0 1018.5 0.8 84
2018-05-14 22:00:00 13.2 20 Norte 27 Norte 0 1018.2 0.6 82
2018-05-14 21:00:00 13.6 17 Norte 25 Norte 0 1017.8 0.1 84
2018-05-14 20:00:00 14 9 Noroeste 28 Norte 0 1017.7 0.1 82
2018-05-14 19:00:00 14.5 12 Noroeste 26 Norte 0 1017.6 -0.2 83
2018-05-14 18:00:00 15 13 Noroeste 23 Noroeste 0 1017.7 0.2 81
2018-05-14 17:00:00 15.2 13 Norte 22 Noroeste 0 1017.6 0 83
2018-05-14 16:00:00 15.6 10 Noroeste 23 Noroeste 0 1017.8 0.2 85
2018-05-14 15:00:00 15.4 12 Noroeste 21 Norte 0 1017.5 0.4 82
2018-05-14 14:00:00 14.5 12 Norte 21 Norte 0 1017.6 0.9 94
2018-05-14 13:00:00 13.4 12 Norte 23 Noroeste 0 1017.6 1.1 98
2018-05-14 12:00:00 12.9 12 Norte 26 Norte 0 1017.1 0.8 99
2018-05-14 11:00:00 13 14 Norte 33 Norte 0.2 1016.7 0.7 99
2018-05-14 10:00:00 12.9 15 Norte 30 Norte 0.6 1016.5 1 99
2018-05-14 09:00:00 12.8 11 Noroeste 23 Noroeste 0.4 1016.3 0.6 99
2018-05-14 08:00:00 12.8 13 Noroeste 30 Noroeste 0 1016 0.2 99
2018-05-14 07:00:00 12.7 15 Noroeste 30 Noroeste 0 1015.5 -0.5 99
2018-05-14 06:00:00 12.7 15 Noroeste 30 Noroeste 0.6 1015.7 -0.4 99
2018-05-14 05:00:00 12.8 15 Noroeste 28 Noroeste 0 1015.8 -0.4 99
2018-05-14 04:00:00 12.9 17 Noroeste 29 Oeste 0.4 1016 -0.2 99
2018-05-14 03:00:00 12.8 21 Oeste 33 Oeste 0.6 1016.1 -0.5 98
2018-05-14 02:00:00 12.8 19 Oeste 36 Oeste 1.6 1016.2 -0.4 97
2018-05-14 01:00:00 11.9 16 Sudoeste 32 Sudoeste 1 1016.2 -0.3 95
2018-05-11 20:00:00 13.4 15 Oeste 24 Oeste 0 1010.7 1 69
2018-05-11 19:00:00 13.5 13 Oeste 23 Oeste 0 1010.4 0.9 81
2018-05-11 18:00:00 13.7 14 Oeste 34 Oeste 0 1010.4 1.3 81
2018-05-11 17:00:00 14.5 21 Oeste 44 Sudoeste 0 1009.7 0.8 82
2018-05-11 16:00:00 15.8 16 Sudoeste 32 Sudoeste 0 1009.5 0.8 71
2018-05-11 15:00:00 16 10 Sudoeste 33 Sudoeste 0 1009.1 0.3 69
2018-05-11 14:00:00 15.6 13 Sudoeste 28 Sudoeste 0 1008.9 0.7 70
2018-05-11 13:00:00 14.1 9 Sur 26 Sur 0 1008.7 0.7 77
2018-05-11 12:00:00 12.5 7 Sur 24 Sur 0.6 1008.8 0.5 85
2018-05-11 11:00:00 12.7 13 Sur 21 Sur 0 1008.2 0.5 75
2018-05-11 10:00:00 12.5 10 Sudeste 21 Sudeste 0 1008 0 72
2018-05-11 09:00:00 12 3 Sudoeste 17 Sur 0 1008.3 0.3 73
2018-05-11 08:00:00 11.7 5 Sudeste 20 Sur 0 1007.7 0.3 76
2018-05-11 07:00:00 11.6 13 Sur 28 Sudoeste 0 1008 1.2 78
2018-05-11 06:00:00 11.5 12 Sudoeste 37 Oeste 0 1008 1.6 81
2018-05-11 05:00:00 11.9 18 Oeste 28 Oeste 0 1007.4 1.1 81
2018-05-11 04:00:00 13.5 7 Oeste 20 Oeste 0 1006.8 -0.2 76
2018-05-11 03:00:00 13.5 5 Sudoeste 15 Sur 0 1006.4 -1.2 74
2018-05-11 02:00:00 13.7 12 Sur 16 Sur 0 1006.3 -1.9 74
2018-05-11 01:00:00 13.7 10 Sudeste 15 Sudeste 0 1007 -1.1 74
2018-05-11 00:00:00 13.7 7 Sudeste 11 Sudeste 0 1007.6 -0.2 75
2018-05-10 23:00:00 14.2 2 Sudeste 9 Oeste 0 1008.2 0.1 71
2018-05-10 22:00:00 14.8 3 Oeste 12 Nordeste 0 1008.1 -1 68
2018-05-10 21:00:00 15.3 7 Norte 14 Norte 0 1007.8 -1.9 67
2018-05-10 20:00:00 14.4 8 Norte 33 Norte 0 1008.1 -2.4 74
2018-05-10 19:00:00 14.1 23 Norte 42 Norte 0 1009.1 -2.4 71
2018-05-10 18:00:00 14.1 28 Norte 42 Norte 0 1009.7 -2.9 68
2018-05-10 17:00:00 14.3 28 Norte 44 Norte 0 1010.5 -2.6 64
2018-05-10 16:00:00 14.7 28 Norte 42 Norte 0 1011.5 -2.2 61
2018-05-10 15:00:00 14.9 26 Norte 37 Norte 0 1012.6 -1.7 63
2018-05-10 14:00:00 15.9 21 Norte 32 Norte 0 1013.1 -1.6 60
2018-05-10 13:00:00 15.3 20 Nordeste 32 Este 0 1013.7 -0.6 58
2018-05-10 12:00:00 14.6 16 Nordeste 33 Norte 0 1014.3 -0.1 65
2018-05-10 11:00:00 14.2 15 Norte 30 Nordeste 0 1014.7 1.1 64
2018-05-10 10:00:00 13.4 20 Nordeste 35 Nordeste 0 1014.3 1.5 66
2018-05-10 09:00:00 12.1 19 Nordeste 26 Nordeste 0 1014.4 1.8 74
2018-05-10 08:00:00 11.1 14 Nordeste 22 Nordeste 0 1013.6 0.9 81
2018-05-10 07:00:00 11.1 12 Nordeste 26 Nordeste 0 1012.8 0.2 81
2018-05-10 06:00:00 11.4 15 Nordeste 24 Nordeste 0 1012.6 -0.1 78
2018-05-10 05:00:00 12 12 Nordeste 23 Nordeste 0 1012.7 0 78
2018-05-10 04:00:00 12.3 13 Nordeste 33 Norte 0 1012.6 0 78
2018-05-10 03:00:00 12.4 28 Norte 36 Norte 0 1012.7 0.3 78
2018-05-10 02:00:00 12.7 17 Norte 32 Norte 0 1012.7 0.8 85
2018-05-10 01:00:00 12.7 23 Norte 33 Norte 0 1012.6 1.6 83
2018-05-10 00:00:00 12.4 14 Noroeste 42 Oeste 0.6 1012.4 1.8 91
2018-05-09 23:00:00 12.7 10 Oeste 23 Noroeste 0 1011.9 1.5 91
2018-05-09 22:00:00 13.6 9 Oeste 18 Oeste 0 1011 0.7 75
2018-05-09 21:00:00 14.1 10 Oeste 19 Noroeste 0 1010.6 0.5 73
2018-05-09 20:00:00 14.3 14 Oeste 22 Oeste 0 1010.4 0.5 71
2018-05-09 19:00:00 15 14 Oeste 22 Noroeste 0 1010.3 0.7 70
2018-05-09 18:00:00 14.9 14 Oeste 26 Oeste 0 1010.1 0.3 72
2018-05-09 17:00:00 15.3 15 Oeste 23 Oeste 0 1009.9 0.1 70
2018-05-09 16:00:00 15.3 11 Oeste 22 Oeste 0 1009.6 0 68
2018-05-09 15:00:00 15.8 12 Oeste 22 Noroeste 0 1009.8 0.4 68
2018-05-09 14:00:00 15.3 13 Noroeste 24 Noroeste 0 1009.8 0.6 69
2018-05-09 13:00:00 14.2 12 Noroeste 22 Noroeste 0 1009.6 0.7 74
2018-05-09 12:00:00 14.2 11 Noroeste 19 Noroeste 0 1009.4 0.5 76
2018-05-09 11:00:00 13.5 11 Norte 19 Norte 0 1009.2 0.7 82
2018-05-09 10:00:00 12.9 11 Norte 21 Norte 0 1008.9 0.8 83
2018-05-09 09:00:00 12.8 12 Norte 22 Nordeste 0 1008.9 0.7 84
2018-05-09 08:00:00 12.8 9 Norte 24 Nordeste 0 1008.5 -0.1 87
2018-05-09 07:00:00 12.8 12 Norte 23 Norte 0 1008.1 -0.7 87
2018-05-09 06:00:00 12.9 10 Norte 28 Norte 0 1008.2 -1.1 90
2018-05-09 05:00:00 12.9 22 Norte 31 Norte 0 1008.6 -1.5 92
2018-05-09 04:00:00 12.9 21 Norte 35 Norte 0 1008.8 -1.2 92
2018-05-09 03:00:00 13.1 24 Norte 32 Norte 0 1009.3 -0.7 92
2018-05-09 02:00:00 13.3 17 Norte 30 Norte 0 1010.1 -0.2 94
2018-05-09 01:00:00 13.1 16 Norte 22 Norte 0 1010 -0.1 97
2018-05-09 00:00:00 13 9 Norte 16 Norte 0 1010 -0.2 97
2018-05-08 23:00:00 12.9 8 Norte 13 Noroeste 0 1010.3 -0.2 96
2018-05-08 22:00:00 12.9 4 Norte 15 Norte 0 1010.1 -0.3 96
2018-05-08 21:00:00 13 7 Norte 14 Norte 0 1010.2 -0.2 94
2018-05-08 20:00:00 13.1 7 Noroeste 18 Noroeste 0 1010.5 0 95
2018-05-08 19:00:00 14.4 7 Noroeste 19 Noroeste 0 1010.4 -0.3 83
2018-05-08 18:00:00 15.6 12 Oeste 24 Oeste 0 1010.4 -0.6 78
2018-05-08 17:00:00 16.3 15 Oeste 22 Oeste 0 1010.5 -1 73
2018-05-08 16:00:00 16.7 8 Norte 13 Nordeste 0 1010.7 -1.3 71
2018-05-08 15:00:00 16.2 7 Norte 13 Sudeste 0 1011 -1.1 71
2018-05-08 14:00:00 14.3 4 Este 12 Nordeste 0 1011.5 0 76
2018-05-08 13:00:00 13.2 6 Nordeste 13 Norte 0 1012 1.2 80
2018-05-08 12:00:00 12.5 12 Norte 25 Noroeste 0 1012.1 1.6 80
2018-05-08 11:00:00 12.7 9 Noroeste 21 Norte 0 1011.5 1 83
2018-05-08 10:00:00 12.4 9 Norte 14 Norte 0 1010.8 0.3 88
2018-05-08 09:00:00 12 6 Norte 16 Norte 0 1010.5 0.4 90
2018-05-08 08:00:00 11.9 10 Norte 18 Noroeste 0 1010.5 0.6 89
2018-05-08 07:00:00 12.3 10 Noroeste 19 Norte 0 1010.5 0.5 88
2018-05-08 06:00:00 12.5 11 Norte 20 Noroeste 0 1010.1 -0.3 91
2018-05-08 05:00:00 12.6 8 Norte 17 Norte 0 1009.9 -0.9 93
2018-05-08 04:00:00 12.8 10 Norte 17 Norte 0 1010 -1.1 92
2018-05-08 03:00:00 13 8 Norte 23 Norte 0 1010.4 -0.4 93
2018-05-08 02:00:00 12.9 14 Norte 25 Norte 0 1010.8 0.7 94
2018-05-08 01:00:00 13.1 14 Norte 26 Noroeste 0 1011.1 1.8 95
2018-05-08 00:00:00 13.3 14 Noroeste 24 Norte 0 1010.8 2.1 96
2018-05-07 23:00:00 13.4 12 Norte 30 Norte 0 1010.1 1.7 95
2018-05-07 22:00:00 13.6 13 Norte 27 Norte 0 1009.3 0.9 95
2018-05-07 21:00:00 13.8 10 Noroeste 22 Noroeste 0 1008.7 0.2 93
2018-05-07 20:00:00 13.8 10 Noroeste 28 Norte 0 1008.4 -0.3 94
2018-05-07 19:00:00 13.9 11 Norte 27 Noroeste 0 1008.4 -0.6 94
2018-05-07 18:00:00 14.3 12 Noroeste 24 Oeste 0 1008.5 -0.8 91
2018-05-07 17:00:00 14.9 11 Noroeste 31 Noroeste 0 1008.7 -0.7 89
2018-05-07 16:00:00 15.3 17 Noroeste 28 Noroeste 0 1009 -0.5 86
2018-05-07 15:00:00 16.5 10 Noroeste 28 Noroeste 0 1009.3 -0.4 82
2018-05-07 14:00:00 16.7 14 Norte 25 Norte 0 1009.4 -0.1 82
2018-05-07 13:00:00 17.1 9 Norte 17 Noroeste 0 1009.5 0.3 81
2018-05-07 12:00:00 17.5 -- -- -- -- -- 1009.7 0.5 78
2018-05-07 11:00:00 17.5 7 Norte 11 Norte 0 1009.5 0.7 73
2018-05-07 10:00:00 16.3 4 Nordeste 6 Nordeste 0 1009.2 0.7 81
2018-05-07 09:00:00 14 3 Norte 6 Nordeste 0 1009.2 0.9 89
2018-05-07 08:00:00 13 3 Este 5 Sudeste 0 1008.8 0.4 92
2018-05-07 07:00:00 13.1 2 Noroeste 4 Sur 0 1008.5 0.1 89
2018-05-07 06:00:00 13.4 0 Calma 3 Sudeste 0 1008.3 -0.4 88
2018-05-07 05:00:00 13.8 2 Este 4 Sudeste 0 1008.4 -0.4 87
2018-05-07 04:00:00 14 3 Sudoeste 4 Sur 0 1008.4 -0.5 84
2018-05-07 03:00:00 14.4 4 Sudeste 6 Sudeste 0 1008.7 -0.1 84
2018-05-07 02:00:00 14.8 3 Este 5 Este 0 1008.8 0.4 83
2018-05-07 01:00:00 14.7 0 Calma 11 Oeste 0 1008.9 1 81
2018-05-07 00:00:00 15 8 Oeste 15 Oeste 0 1008.8 1.2 81
2018-05-06 23:00:00 15.5 10 Oeste 15 Oeste 0 1008.4 1.1 78
2018-05-06 22:00:00 16.7 6 Sudoeste 11 Oeste 0 1007.9 0.6 74
2018-05-06 21:00:00 17.9 8 Oeste 15 Sudoeste 0 1007.6 0.3 68
2018-05-06 20:00:00 18.6 7 Oeste 20 Oeste 0 1007.3 -0.1 66
2018-05-06 19:00:00 19.5 14 Oeste 22 Oeste 0 1007.3 -0.5 66
2018-05-06 18:00:00 21.1 10 Noroeste 20 Noroeste 0 1007.3 -0.5 57
2018-05-06 17:00:00 21.5 11 Norte 21 Norte 0 1007.4 -0.8 58
2018-05-06 16:00:00 21.2 11 Norte 20 Norte 0 1007.8 -0.8 60
2018-05-06 15:00:00 20.8 8 Noroeste 17 Norte 0 1007.8 -1 59
2018-05-06 14:00:00 20.7 10 Norte 15 Norte 0 1008.2 -0.7 61
2018-05-06 13:00:00 20.8 7 Norte 11 Nordeste 0 1008.6 -0.5 60
2018-05-06 12:00:00 21 6 Nordeste 10 Sudeste 0 1008.8 -0.2 57
2018-05-06 11:00:00 18.5 6 Este 11 Sudeste 0 1008.9 0.1 63
2018-05-06 10:00:00 15.7 6 Sudeste 13 Este 0 1009.1 0.4 69
2018-05-06 09:00:00 12.5 5 Este 10 Este 0 1009 0.1 80
2018-05-06 08:00:00 11.5 5 Sudeste 8 Sudeste 0 1008.8 -0.2 82
2018-05-06 07:00:00 11.5 3 Sudeste 6 Sudeste 0 1008.7 -0.5 82
2018-05-06 06:00:00 11.9 2 Norte 6 Sudeste 0 1008.9 -0.5 79
2018-05-06 05:00:00 12.3 6 Sudeste 10 Sudeste 0 1009 -0.9 77
2018-05-06 04:00:00 12.6 5 Este 8 Nordeste 0 1009.2 -1.1 77
2018-05-06 03:00:00 13.1 7 Este 17 Nordeste 0 1009.4 -1.1 78
2018-05-06 02:00:00 13.3 7 Este 20 Nordeste 0 1009.9 -0.6 76
2018-05-06 01:00:00 13.5 12 Nordeste 25 Nordeste 0 1010.3 0.3 77
2018-05-06 00:00:00 13.8 16 Nordeste 31 Nordeste 0 1010.5 0.9 74
2018-05-05 23:00:00 14.3 18 Nordeste 34 Nordeste 0 1010.5 1.2 71
2018-05-05 22:00:00 15.2 25 Nordeste 37 Nordeste 0 1010 0.6 68
2018-05-05 21:00:00 14.9 27 Nordeste 40 Nordeste 0 1009.6 0.2 77
2018-05-05 20:00:00 16.5 20 Nordeste 39 Nordeste 0 1009.3 0 67
2018-05-05 19:00:00 15.9 21 Nordeste 40 Nordeste 0 1009.4 -0.5 72
2018-05-05 18:00:00 17.8 23 Nordeste 41 Nordeste 0 1009.4 -0.9 64
2018-05-05 17:00:00 16.9 19 Norte 34 Norte 0 1009.3 -1.4 68
2018-05-05 16:00:00 16.5 14 Norte 42 Norte 0 1009.9 -1.3 70
2018-05-05 15:00:00 15.8 27 Norte 44 Norte 0 1010.3 -1.3 75
2018-05-05 14:00:00 15.7 22 Norte 38 Norte 0 1010.7 -1.3 73
2018-05-05 13:00:00 18.2 8 Noroeste 15 Nordeste 0 1011.2 -1 58
2018-05-05 12:00:00 17 5 Este 12 Nordeste 0 1011.6 -0.6 54
2018-05-05 11:00:00 14.9 9 Nordeste 15 Nordeste 0 1012 -0.2 62
2018-05-05 10:00:00 13.2 10 Nordeste 16 Este 0 1012.2 0.4 72
2018-05-05 09:00:00 10.9 12 Este 18 Este 0 1012.2 0.6 79
2018-05-05 08:00:00 10.5 7 Este 21 Este 0 1012.2 0.5 80
2018-05-05 07:00:00 11 14 Nordeste 25 Nordeste 0 1011.8 0.1 76
2018-05-05 06:00:00 11.1 13 Nordeste 29 Este 0 1011.6 -0.6 77
2018-05-05 05:00:00 11.5 17 Nordeste 28 Nordeste 0 1011.7 -1 77
2018-05-05 04:00:00 11.8 21 Nordeste 38 Nordeste 0 1011.7 -1.1 76
2018-05-05 03:00:00 11.9 23 Nordeste 32 Nordeste 0 1012.2 -0.8 75
2018-05-05 02:00:00 12.1 18 Nordeste 36 Nordeste 0 1012.7 -0.2 74
2018-05-05 01:00:00 12.3 23 Nordeste 35 Nordeste 0 1012.8 0.6 74
2018-05-05 00:00:00 12.3 18 Nordeste 36 Nordeste 0 1013 1.3 73
2018-05-04 23:00:00 12.7 19 Nordeste 44 Nordeste 0 1012.9 1.3 69
2018-05-04 22:00:00 13.3 24 Nordeste 41 Nordeste 0 1012.2 0.4 66
2018-05-04 21:00:00 13.7 26 Nordeste 42 Nordeste 0 1011.7 0 68
2018-05-04 20:00:00 13.4 22 Nordeste 45 Nordeste 0 1011.6 -0.3 76
2018-05-04 19:00:00 13.6 23 Norte 48 Nordeste 0 1011.8 -0.7 72
2018-05-04 18:00:00 14.1 24 Norte 47 Norte 0 1011.7 -1.3 70
2018-05-04 17:00:00 14.9 20 Norte 43 Nordeste 0 1011.9 -1.6 69
2018-05-04 16:00:00 15.2 21 Norte 35 Norte 0 1012.5 -1.5 67
2018-05-04 15:00:00 15.2 19 Norte 40 Norte 0 1013 -1.4 68
2018-05-04 14:00:00 15.5 18 Norte 33 Norte 0 1013.5 -1.1 63
2018-05-04 13:00:00 15.9 22 Nordeste 39 Nordeste 0 1014 -0.9 60
2018-05-04 12:00:00 15 24 Nordeste 41 Nordeste 0 1014.4 -0.4 63
2018-05-04 11:00:00 14.1 15 Nordeste 26 Norte 0 1014.6 0.1 69
2018-05-04 10:00:00 12.1 9 Nordeste 17 Norte 0 1014.9 0.7 75
2018-05-04 09:00:00 11.3 9 Nordeste 20 Nordeste 0 1014.8 0.6 77
2018-05-04 08:00:00 10.7 11 Nordeste 20 Nordeste 0 1014.5 0 79
2018-05-04 07:00:00 10.4 12 Nordeste 20 Nordeste 0 1014.2 -0.6 79
2018-05-04 06:00:00 10.6 13 Nordeste 23 Este 0 1014.2 -1.1 78
2018-05-04 05:00:00 10.6 15 Nordeste 24 Nordeste 0 1014.5 -1.4 78
2018-05-04 04:00:00 10.8 14 Nordeste 26 Nordeste 0 1014.8 -1.3 77
2018-05-04 03:00:00 10.8 15 Nordeste 24 Nordeste 0 1015.3 -1.1 78
2018-05-04 02:00:00 10.9 14 Nordeste 26 Nordeste 0 1015.9 -0.6 76
2018-05-04 01:00:00 11 15 Nordeste 24 Nordeste 0 1016.1 0.2 75
2018-05-04 00:00:00 11.3 14 Nordeste 29 Este 0 1016.4 1 74
2018-05-03 23:00:00 11.7 16 Nordeste 30 Nordeste 0 1016.5 1.6 75
2018-05-03 22:00:00 12.1 21 Nordeste 34 Norte 0 1015.9 1 72
2018-05-03 21:00:00 12.3 19 Norte 41 Norte 0 1015.4 0.5 73
2018-05-03 20:00:00 12.5 21 Norte 45 Norte 0 1014.9 -0.2 73
2018-05-03 19:00:00 12.7 27 Norte 41 Norte 0 1014.9 -0.4 74
2018-05-03 18:00:00 13 26 Norte 43 Norte 0 1014.9 -0.6 66
2018-05-03 17:00:00 13.4 25 Norte 45 Norte 0 1015.1 -0.7 68
2018-05-03 16:00:00 13.5 29 Norte 43 Norte 0 1015.3 -0.8 66
2018-05-03 15:00:00 13.5 26 Norte 42 Norte 0 1015.5 -0.6 65
2018-05-03 14:00:00 13.6 23 Norte 38 Norte 0 1015.8 -0.3 66
2018-05-03 13:00:00 13.7 21 Norte 33 Norte 0 1016.1 0.4 66
2018-05-03 12:00:00 12.9 18 Nordeste 32 Nordeste 0 1016.1 0.6 70
2018-05-03 11:00:00 12.9 13 Nordeste 21 Nordeste 0 1016.1 1.2 71
2018-05-03 10:00:00 12.3 11 Nordeste 18 Este 0 1015.7 1.3 74
2018-05-03 09:00:00 11 10 Nordeste 18 Nordeste 0 1015.5 1.1 80
2018-05-03 08:00:00 10.4 10 Nordeste 17 Nordeste 0 1014.9 0.6 81
2018-05-03 07:00:00 10.3 10 Nordeste 18 Nordeste 0 1014.4 0 81
2018-05-03 06:00:00 10.4 11 Nordeste 18 Nordeste 0 1014.4 -0.1 80
2018-05-03 05:00:00 10.8 13 Nordeste 22 Nordeste 0 1014.3 -0.2 77
2018-05-03 04:00:00 11.2 14 Nordeste 27 Norte 0 1014.4 0.2 78
2018-05-03 03:00:00 11.6 17 Nordeste 28 Norte 0 1014.5 0.5 77
2018-05-03 02:00:00 11.7 16 Nordeste 24 Nordeste 0 1014.5 1 80
2018-05-03 01:00:00 11.7 11 Nordeste 20 Nordeste 0 1014.2 1.7 83
2018-05-03 00:00:00 11.7 13 Nordeste 21 Nordeste 0 1014 2.3 88
2018-05-02 23:00:00 11.4 14 Nordeste 30 Nordeste 0.4 1013.5 2.5 90
2018-05-02 22:00:00 11.3 15 Norte 37 Norte 1 1012.5 2.4 96
2018-05-02 21:00:00 11.6 17 Norte 40 Norte 0.2 1011.7 2.3 96
2018-05-02 20:00:00 12.7 22 Norte 35 Norte 1 1011 1.8 94
2018-05-02 19:00:00 14.1 11 Oeste 23 Sudoeste 3 1010.1 1.2 93
2018-05-02 18:00:00 14.4 13 Oeste 24 Oeste 0.4 1009.4 1.1 91
2018-05-02 17:00:00 15.1 12 Oeste 37 Sudoeste 0.2 1009.2 1 86
2018-05-02 16:00:00 16 22 Sudoeste 40 Sudoeste 0 1008.9 0.9 73
2018-05-02 15:00:00 16.2 20 Sudoeste 35 Sudoeste 0 1008.3 0.9 69
2018-05-02 14:00:00 15.4 18 Sudoeste 32 Sudoeste 0 1008.2 1.5 72
2018-05-02 13:00:00 14.7 10 Sur 23 Sur 0 1008 1.8 71
2018-05-02 12:00:00 13.6 11 Sur 28 Sudoeste 0 1007.4 1.9 74
2018-05-02 11:00:00 12.9 10 Sur 30 Sudoeste 0 1006.7 1.6 76
2018-05-02 10:00:00 12.2 13 Sur 30 Sur 0 1006.2 1.4 78
2018-05-02 09:00:00 11.7 9 Sur 23 Sur 0.2 1005.5 0.8 79
2018-05-02 08:00:00 11.5 5 Sur 23 Sur 0 1005.1 0.5 79
2018-05-02 07:00:00 11.6 10 Sur 30 Sur 0 1004.8 0.1 78
2018-05-02 06:00:00 11.6 10 Sur 27 Sur 0 1004.7 -0.5 79
2018-05-02 05:00:00 11.4 8 Sur 44 Sudoeste 0 1004.6 -1.1 80
2018-05-02 04:00:00 11.4 15 Sur 36 Sudoeste 0 1004.7 -1.4 79
2018-05-02 03:00:00 11.2 10 Sur 26 Sur 0.2 1005.2 -1.3 80
2018-05-02 02:00:00 10.9 4 Sur 21 Sur 0.4 1005.7 -1.2 82
2018-05-02 01:00:00 10.9 8 Sur 20 Sur 0.4 1006.1 -0.8 81
2018-05-02 00:00:00 11 9 Sudeste 17 Sur 0.4 1006.5 -0.5 78
2018-05-01 23:00:00 11.5 9 Sur 31 Sur 0.2 1006.9 -0.3 72
2018-05-01 22:00:00 12.5 12 Sur 29 Sudoeste 0 1006.9 -0.2 60
2018-05-01 21:00:00 13 20 Sudoeste 41 Sudoeste 0 1007 -0.6 54
2018-05-01 20:00:00 13.7 19 Sudoeste 41 Sudoeste 0 1007.2 -0.7 50
2018-05-01 19:00:00 15.1 23 Sudoeste 41 Sudoeste 0 1007.1 -1.8 44
2018-05-01 18:00:00 15.6 19 Oeste 42 Oeste 0 1007.6 -1.9 39
2018-05-01 17:00:00 15.2 21 Oeste 37 Oeste 0 1007.9 -2 56
2018-05-01 16:00:00 14.8 22 Oeste 40 Oeste 0 1008.9 -1.2 57
2018-05-01 15:00:00 14.7 22 Oeste 34 Noroeste 0 1009.5 -1.2 56
2018-05-01 14:00:00 14.7 19 Oeste 29 Oeste 0 1009.9 -1 57
2018-05-01 13:00:00 14.2 15 Noroeste 26 Oeste 0 1010.1 -1 55
2018-05-01 12:00:00 13.8 12 Oeste 20 Oeste 0 1010.7 -0.3 55
2018-05-01 11:00:00 13.2 6 Oeste 13 Oeste 0 1010.9 0.1 58
2018-05-01 10:00:00 11.8 4 Sur 9 Sur 0 1011.1 0.5 61
2018-05-01 09:00:00 9.1 3 Sudeste 9 Sur 0 1011 0.3 75
2018-05-01 08:00:00 8.3 5 Sur 9 Sur 0 1010.8 -0.3 79
2018-05-01 07:00:00 8 4 Sur 8 Sur 0 1010.6 -0.7 81
2018-05-01 06:00:00 8.7 5 Sur 13 Sudoeste 0 1010.7 -1.1 78
2018-05-01 05:00:00 8.6 3 Sur 12 Sur 0 1011.1 -0.9 76
2018-05-01 04:00:00 8.9 7 Sur 11 Sur 0 1011.3 -0.8 75
2018-05-01 03:00:00 9.3 4 Sur 9 Sur 0 1011.8 -0.1 74
2018-05-01 02:00:00 9.9 6 Sudeste 9 Sur 0 1012 0.1 73
2018-05-01 01:00:00 10.3 5 Este 15 Nordeste 0 1012.1 0.6 75
2018-05-01 00:00:00 10.8 10 Nordeste 17 Nordeste 0 1011.9 0.7 67
2018-04-30 23:00:00 11.1 12 Nordeste 23 Norte 0 1011.9 0.9 66
2018-04-30 22:00:00 11.5 16 Norte 24 Norte 0 1011.5 0.7 65
2018-04-30 21:00:00 11.7 15 Norte 29 Nordeste 0 1011.2 0.7 61
2018-04-30 20:00:00 12.1 16 Norte 28 Norte 0 1011 0.7 58
2018-04-30 19:00:00 12.5 17 Norte 27 Norte 0 1010.8 0.6 59
2018-04-30 18:00:00 12.9 17 Norte 28 Norte 0 1010.5 0.3 60
2018-04-30 17:00:00 13 18 Norte 28 Norte 0 1010.3 0.1 58
2018-04-30 16:00:00 13.4 17 Norte 24 Norte 0 1010.2 0.2 61
2018-04-30 15:00:00 12.5 6 Norte 18 Norte 0 1010.2 0.7 68
2018-04-30 14:00:00 13.4 9 Norte 15 Norte 0 1010.2 1.3 67
2018-04-30 13:00:00 11.9 9 Norte 26 Norte 0 1010 1.7 68
2018-04-30 12:00:00 12.6 9 Noroeste 18 Noroeste 0 1009.5 1.7 70
2018-04-30 11:00:00 12.8 6 Norte 10 Este 0 1008.9 1.7 67
2018-04-30 10:00:00 10.6 0 Calma 9 Sur 0 1008.3 1.8 82
2018-04-30 09:00:00 8.4 5 Sudeste 11 Sur 0 1007.8 1.7 88
2018-04-30 08:00:00 8 3 Sudeste 7 Sudeste 0 1007.2 1.1 89
2018-04-30 07:00:00 8 2 Sudeste 13 Sudeste 0 1006.5 0.9 88
2018-04-30 06:00:00 8 5 Sur 10 Sur 0.4 1006.1 0.4 87
2018-04-30 05:00:00 8.2 4 Este 13 Sudeste 0.8 1006.1 0.5 86
2018-04-30 04:00:00 8.5 9 Sudeste 21 Sur 0 1005.6 0.3 81
2018-04-30 03:00:00 8.5 12 Sur 21 Sur 0 1005.7 0.7 80
2018-04-30 02:00:00 8.7 10 Sur 18 Sur 0 1005.6 1 79
2018-04-30 01:00:00 8.8 8 Sur 21 Sur 0 1005.3 1.2 77
2018-04-30 00:00:00 8.8 9 Sur 20 Sur 0 1005 1.8 77
2018-04-29 23:00:00 8.9 10 Sudoeste 23 Sur 0 1004.6 2 78
2018-04-29 22:00:00 8.9 12 Sudoeste 42 Sudoeste 0.2 1004.1 1.6 78
2018-04-29 21:00:00 10.7 13 Sudoeste 27 Sudoeste 0 1003.2 1.1 72
2018-04-29 20:00:00 10.9 19 Sudoeste 40 Sudoeste 0 1002.6 0.7 70
2018-04-29 19:00:00 11 19 Sudoeste 37 Sudoeste 0.6 1002.5 1 76
2018-04-29 18:00:00 9.7 17 Sudoeste 38 Oeste 3.4 1002.1 1 83
2018-04-29 17:00:00 11.1 17 Oeste 36 Oeste 0 1001.9 1.1 70
2018-04-29 16:00:00 12.5 19 Sudoeste 42 Sudoeste 0.2 1001.5 0.8 70
2018-04-29 15:00:00 11.9 22 Oeste 43 Oeste 0 1001.1 0.6 74
2018-04-29 14:00:00 12.7 21 Oeste 40 Oeste 0 1000.8 0.7 70
2018-04-29 13:00:00 12.9 14 Oeste 33 Sudoeste 0 1000.7 1.1 69
2018-04-29 12:00:00 10.8 18 Sudoeste 33 Sudoeste 0.2 1000.5 1 81
2018-04-29 11:00:00 11 16 Sudoeste 27 Sudoeste 0 1000.1 1.1 79
2018-04-29 10:00:00 11 11 Sudoeste 28 Sudoeste 0 999.6 0.7 75
2018-04-29 09:00:00 9.7 7 Sur 15 Sudeste 0 999.5 0.3 81
2018-04-29 08:00:00 9.3 9 Sudeste 13 Sudeste 0 999 -0.3 84
2018-04-29 07:00:00 9.4 6 Sudeste 13 Sur 0 998.9 -0.6 84
2018-04-29 06:00:00 9.5 6 Sur 14 Sur 0 999.2 -0.9 83
2018-04-29 05:00:00 9.5 9 Sur 17 Sur 0.2 999.3 -1.5 83
2018-04-29 04:00:00 9.7 6 Sur 17 Sur 0.2 999.5 -1.8 81
2018-04-29 03:00:00 10 5 Sur 13 Sur 0 1000.1 -1.6 77
2018-04-29 02:00:00 9.9 7 Sur 13 Sudeste 0 1000.8 -1.2 83
2018-04-29 01:00:00 10.2 3 Sur 9 Sur 0 1001.3 -0.6 86
2018-04-29 00:00:00 10.4 5 Sudoeste 10 Sudoeste 0 1001.7 -0.1 84
2018-04-28 23:00:00 10.4 5 Oeste 14 Oeste 0 1002 0.1 86
2018-04-28 22:00:00 10.7 6 Noroeste 31 Sudoeste 0.4 1001.9 -0.3 83
2018-04-28 21:00:00 12.2 8 Noroeste 17 Norte 0 1001.8 -0.4 64
2018-04-28 20:00:00 12.7 10 Norte 24 Norte 0 1001.9 -0.6 64
2018-04-28 19:00:00 12.7 10 Noroeste 24 Norte 0 1002.2 -0.8 63
2018-04-28 18:00:00 13.7 12 Norte 25 Norte 0 1002.2 -1.1 61
2018-04-28 17:00:00 13.6 15 Norte 26 Noroeste 0 1002.5 -1.2 62
2018-04-28 16:00:00 14.4 17 Norte 27 Norte 0 1003 -1.2 60
2018-04-28 15:00:00 13.8 15 Norte 26 Norte 0 1003.3 -1.2 61
2018-04-28 14:00:00 14.4 15 Norte 24 Norte 0 1003.7 -1.1 57
2018-04-28 13:00:00 13.9 12 Norte 21 Norte 0 1004.2 -0.9 60
2018-04-28 12:00:00 14.7 9 Nordeste 17 Este 0 1004.5 -0.6 48
2018-04-28 11:00:00 13.6 8 Este 13 Este 0 1004.8 -0.4 60
2018-04-28 10:00:00 12.2 5 Este 10 Este 0 1005.1 -0.2 69
2018-04-28 09:00:00 9.4 5 Sudeste 10 Sudeste 0 1005.1 -0.6 78
2018-04-28 08:00:00 9.1 6 Sur 10 Sur 0 1005.2 -0.9 77
2018-04-28 07:00:00 9.5 4 Sudeste 9 Sur 0 1005.3 -1.4 77
2018-04-28 06:00:00 10.1 5 Sur 12 Sur 0 1005.7 -1.7 75
2018-04-28 05:00:00 10.4 6 Sur 11 Sur 0 1006.1 -1.7 74
2018-04-28 04:00:00 10.7 5 Sur 14 Sudeste 0 1006.7 -1.5 72
2018-04-28 03:00:00 11 9 Sudeste 13 Sudeste 0 1007.4 -1.4 72
2018-04-28 02:00:00 11.1 3 Norte 13 Oeste 0 1007.8 -1.5 67
2018-04-28 01:00:00 11.4 5 Noroeste 15 Noroeste 0 1008.2 -0.9 64
2018-04-28 00:00:00 11.7 9 Noroeste 18 Noroeste 0 1008.8 -0.5 68